sensor_id;sensor_type;location;lat;lon;timestamp;P1;durP1;ratioP1;P2;durP2;ratioP2
37895;SDS011;23733;53.254;10.430;2022-09-09T14:54:44;3.33;;;1.20;;
37895;SDS011;23733;53.254;10.430;2022-09-09T14:57:10;3.27;;;1.00;;
37895;SDS011;23733;53.254;10.430;2022-09-09T14:59:36;2.10;;;1.20;;
37895;SDS011;23733;53.254;10.430;2022-09-09T15:02:02;4.80;;;1.20;;
37895;SDS011;23733;53.254;10.430;2022-09-09T15:04:29;3.27;;;1.20;;
37895;SDS011;23733;53.254;10.430;2022-09-09T15:09:23;3.20;;;1.50;;
37895;SDS011;23733;53.254;10.430;2022-09-09T15:11:49;2.60;;;1.37;;
37895;SDS011;23733;53.254;10.430;2022-09-09T15:14:15;2.40;;;1.50;;
37895;SDS011;23733;53.254;10.430;2022-09-09T15:16:42;1.93;;;1.13;;
37895;SDS011;23733;53.254;10.430;2022-09-09T15:19:08;2.63;;;1.23;;
37895;SDS011;23733;53.254;10.430;2022-09-09T15:21:35;5.50;;;1.50;;
37895;SDS011;23733;53.254;10.430;2022-09-09T15:24:02;1.67;;;1.10;;
37895;SDS011;23733;53.254;10.430;2022-09-09T15:26:29;5.63;;;1.53;;
37895;SDS011;23733;53.254;10.430;2022-09-09T15:28:55;3.40;;;1.50;;
37895;SDS011;23733;53.254;10.430;2022-09-09T15:31:25;2.47;;;1.20;;
37895;SDS011;23733;53.254;10.430;2022-09-09T15:33:54;3.83;;;1.90;;
37895;SDS011;23733;53.254;10.430;2022-09-09T15:36:29;2.00;;;1.40;;
37895;SDS011;23733;53.254;10.430;2022-09-09T15:38:57;2.67;;;1.60;;
37895;SDS011;23733;53.254;10.430;2022-09-09T15:41:24;3.20;;;1.60;;
37895;SDS011;23733;53.254;10.430;2022-09-09T15:43:52;3.33;;;1.70;;
37895;SDS011;23733;53.254;10.430;2022-09-09T15:46:35;3.70;;;1.70;;
37895;SDS011;23733;53.254;10.430;2022-09-09T15:51:42;3.50;;;1.60;;
37895;SDS011;23733;53.254;10.430;2022-09-09T15:54:14;6.53;;;1.73;;
37895;SDS011;23733;53.254;10.430;2022-09-09T15:56:45;3.70;;;1.50;;
37895;SDS011;23733;53.254;10.430;2022-09-09T15:59:11;6.80;;;1.83;;
37895;SDS011;23733;53.254;10.430;2022-09-09T16:01:38;3.87;;;1.53;;
37895;SDS011;23733;53.254;10.430;2022-09-09T16:04:05;4.40;;;1.57;;
37895;SDS011;23733;53.254;10.430;2022-09-09T16:06:31;2.00;;;1.40;;
37895;SDS011;23733;53.254;10.430;2022-09-09T16:08:58;2.30;;;1.50;;
37895;SDS011;23733;53.254;10.430;2022-09-09T16:11:27;4.97;;;1.80;;
37895;SDS011;23733;53.254;10.430;2022-09-09T16:13:55;3.17;;;1.83;;
37895;SDS011;23733;53.254;10.430;2022-09-09T16:16:22;3.47;;;1.80;;
37895;SDS011;23733;53.254;10.430;2022-09-09T16:18:51;3.00;;;1.40;;
37895;SDS011;23733;53.254;10.430;2022-09-09T16:21:20;2.30;;;1.60;;
37895;SDS011;23733;53.254;10.430;2022-09-09T16:23:50;2.70;;;1.57;;
37895;SDS011;23733;53.254;10.430;2022-09-09T16:26:18;2.53;;;1.50;;
37895;SDS011;23733;53.254;10.430;2022-09-09T16:28:44;3.23;;;1.60;;
37895;SDS011;23733;53.254;10.430;2022-09-09T16:31:16;5.13;;;1.33;;
37895;SDS011;23733;53.254;10.430;2022-09-09T16:33:44;3.97;;;1.60;;
37895;SDS011;23733;53.254;10.430;2022-09-09T16:36:13;2.20;;;1.47;;
37895;SDS011;23733;53.254;10.430;2022-09-09T16:38:41;3.10;;;1.50;;
37895;SDS011;23733;53.254;10.430;2022-09-09T16:41:08;3.23;;;1.70;;
37895;SDS011;23733;53.254;10.430;2022-09-09T16:43:36;4.20;;;1.70;;
37895;SDS011;23733;53.254;10.430;2022-09-09T16:46:03;4.87;;;1.60;;
37895;SDS011;23733;53.254;10.430;2022-09-09T16:48:36;2.83;;;1.40;;
37895;SDS011;23733;53.254;10.430;2022-09-09T16:51:03;2.57;;;1.53;;
37895;SDS011;23733;53.254;10.430;2022-09-09T16:53:31;2.83;;;1.67;;
37895;SDS011;23733;53.254;10.430;2022-09-09T16:56:04;4.70;;;1.60;;
37895;SDS011;23733;53.254;10.430;2022-09-09T16:58:34;2.83;;;1.50;;
37895;SDS011;23733;53.254;10.430;2022-09-09T17:01:00;2.97;;;1.70;;
37895;SDS011;23733;53.254;10.430;2022-09-09T17:03:28;2.13;;;1.30;;
37895;SDS011;23733;53.254;10.430;2022-09-09T17:05:55;1.73;;;1.50;;
37895;SDS011;23733;53.254;10.430;2022-09-09T17:08:25;5.20;;;1.77;;
37895;SDS011;23733;53.254;10.430;2022-09-09T17:10:51;2.57;;;1.47;;
37895;SDS011;23733;53.254;10.430;2022-09-09T17:13:17;5.50;;;1.53;;
37895;SDS011;23733;53.254;10.430;2022-09-09T17:15:45;2.60;;;1.50;;
37895;SDS011;23733;53.254;10.430;2022-09-09T17:18:12;3.90;;;1.67;;
37895;SDS011;23733;53.254;10.430;2022-09-09T17:20:38;4.37;;;1.60;;
37895;SDS011;23733;53.254;10.430;2022-09-09T17:23:07;2.87;;;2.00;;
37895;SDS011;23733;53.254;10.430;2022-09-09T17:25:34;2.13;;;1.40;;
37895;SDS011;23733;53.254;10.430;2022-09-09T17:28:00;2.50;;;1.63;;
37895;SDS011;23733;53.254;10.430;2022-09-09T17:30:29;3.53;;;1.47;;
37895;SDS011;23733;53.254;10.430;2022-09-09T17:32:59;4.17;;;1.80;;
37895;SDS011;23733;53.254;10.430;2022-09-09T17:35:25;5.50;;;2.00;;
37895;SDS011;23733;53.254;10.430;2022-09-09T17:37:53;6.70;;;1.90;;
37895;SDS011;23733;53.254;10.430;2022-09-09T17:40:20;4.70;;;2.07;;
37895;SDS011;23733;53.254;10.430;2022-09-09T17:42:46;6.20;;;2.10;;
37895;SDS011;23733;53.254;10.430;2022-09-09T17:45:12;2.63;;;1.70;;
37895;SDS011;23733;53.254;10.430;2022-09-09T17:47:39;3.10;;;2.00;;
37895;SDS011;23733;53.254;10.430;2022-09-09T17:50:08;3.50;;;2.30;;
37895;SDS011;23733;53.254;10.430;2022-09-09T17:52:38;3.17;;;2.40;;
37895;SDS011;23733;53.254;10.430;2022-09-09T17:55:06;5.70;;;2.20;;
37895;SDS011;23733;53.254;10.430;2022-09-09T17:57:34;6.47;;;2.57;;
37895;SDS011;23733;53.254;10.430;2022-09-09T18:00:00;4.30;;;2.40;;
37895;SDS011;23733;53.254;10.430;2022-09-09T18:02:27;4.13;;;2.23;;
37895;SDS011;23733;53.254;10.430;2022-09-09T18:04:53;3.37;;;2.10;;
37895;SDS011;23733;53.254;10.430;2022-09-09T18:07:19;4.93;;;2.20;;
37895;SDS011;23733;53.254;10.430;2022-09-09T18:09:45;5.80;;;3.10;;
37895;SDS011;23733;53.254;10.430;2022-09-09T18:12:11;5.77;;;2.80;;
37895;SDS011;23733;53.254;10.430;2022-09-09T18:14:37;6.53;;;2.70;;
37895;SDS011;23733;53.254;10.430;2022-09-09T18:17:03;3.90;;;2.80;;
37895;SDS011;23733;53.254;10.430;2022-09-09T18:19:30;3.37;;;2.37;;
37895;SDS011;23733;53.254;10.430;2022-09-09T18:21:57;8.07;;;2.70;;
37895;SDS011;23733;53.254;10.430;2022-09-09T18:24:23;3.00;;;2.10;;
37895;SDS011;23733;53.254;10.430;2022-09-09T18:26:49;4.50;;;1.90;;
37895;SDS011;23733;53.254;10.430;2022-09-09T18:29:16;5.47;;;2.03;;
37895;SDS011;23733;53.254;10.430;2022-09-09T18:31:44;5.40;;;1.80;;
37895;SDS011;23733;53.254;10.430;2022-09-09T18:34:12;3.27;;;1.67;;
37895;SDS011;23733;53.254;10.430;2022-09-09T18:36:40;4.03;;;1.80;;
37895;SDS011;23733;53.254;10.430;2022-09-09T18:39:09;2.67;;;1.77;;
37895;SDS011;23733;53.254;10.430;2022-09-09T18:41:38;4.23;;;1.63;;
37895;SDS011;23733;53.254;10.430;2022-09-09T18:44:12;2.70;;;1.67;;
37895;SDS011;23733;53.254;10.430;2022-09-09T18:46:43;2.47;;;1.50;;
37895;SDS011;23733;53.254;10.430;2022-09-09T18:49:10;2.43;;;1.50;;
37895;SDS011;23733;53.254;10.430;2022-09-09T18:51:37;2.77;;;1.63;;
37895;SDS011;23733;53.254;10.430;2022-09-09T18:54:06;2.73;;;1.50;;
37895;SDS011;23733;53.254;10.430;2022-09-09T18:56:36;7.57;;;1.93;;
37895;SDS011;23733;53.254;10.430;2022-09-09T18:59:05;4.03;;;1.70;;
37895;SDS011;23733;53.254;10.430;2022-09-09T19:01:32;2.47;;;1.60;;
37895;SDS011;23733;53.254;10.430;2022-09-09T19:04:00;2.27;;;1.50;;
37895;SDS011;23733;53.254;10.430;2022-09-09T19:06:28;4.40;;;1.80;;
37895;SDS011;23733;53.254;10.430;2022-09-09T19:08:56;3.43;;;1.60;;
37895;SDS011;23733;53.254;10.430;2022-09-09T19:11:23;3.20;;;1.50;;
37895;SDS011;23733;53.254;10.430;2022-09-09T19:13:54;2.47;;;1.53;;
37895;SDS011;23733;53.254;10.430;2022-09-09T19:16:23;4.33;;;1.50;;
37895;SDS011;23733;53.254;10.430;2022-09-09T19:18:52;3.17;;;1.70;;
37895;SDS011;23733;53.254;10.430;2022-09-09T19:21:22;3.70;;;1.73;;
37895;SDS011;23733;53.254;10.430;2022-09-09T19:23:57;2.77;;;1.50;;
37895;SDS011;23733;53.254;10.430;2022-09-09T19:26:31;3.33;;;1.70;;
37895;SDS011;23733;53.254;10.430;2022-09-09T19:29:00;4.00;;;1.90;;
37895;SDS011;23733;53.254;10.430;2022-09-09T19:31:27;2.50;;;1.57;;
37895;SDS011;23733;53.254;10.430;2022-09-09T19:33:54;2.00;;;1.57;;
37895;SDS011;23733;53.254;10.430;2022-09-09T19:36:21;4.03;;;1.60;;
37895;SDS011;23733;53.254;10.430;2022-09-09T19:38:49;5.50;;;2.20;;
37895;SDS011;23733;53.254;10.430;2022-09-09T19:41:22;5.27;;;1.83;;
37895;SDS011;23733;53.254;10.430;2022-09-09T19:43:50;3.23;;;1.90;;
37895;SDS011;23733;53.254;10.430;2022-09-09T19:46:21;4.67;;;1.77;;
37895;SDS011;23733;53.254;10.430;2022-09-09T19:48:47;2.00;;;1.60;;
37895;SDS011;23733;53.254;10.430;2022-09-09T19:51:14;3.50;;;1.80;;
37895;SDS011;23733;53.254;10.430;2022-09-09T19:53:43;2.77;;;1.90;;
37895;SDS011;23733;53.254;10.430;2022-09-09T19:56:10;3.30;;;1.50;;
37895;SDS011;23733;53.254;10.430;2022-09-09T19:58:38;2.83;;;1.70;;
37895;SDS011;23733;53.254;10.430;2022-09-09T20:01:06;2.90;;;1.57;;
37895;SDS011;23733;53.254;10.430;2022-09-09T20:03:34;4.50;;;1.63;;
37895;SDS011;23733;53.254;10.430;2022-09-09T20:06:00;4.97;;;1.67;;
37895;SDS011;23733;53.254;10.430;2022-09-09T20:08:26;4.47;;;1.70;;
37895;SDS011;23733;53.254;10.430;2022-09-09T20:10:52;3.23;;;1.67;;
37895;SDS011;23733;53.254;10.430;2022-09-09T20:13:19;3.03;;;1.80;;
37895;SDS011;23733;53.254;10.430;2022-09-09T20:15:45;3.13;;;1.63;;
37895;SDS011;23733;53.254;10.430;2022-09-09T20:18:21;2.17;;;1.50;;
37895;SDS011;23733;53.254;10.430;2022-09-09T20:20:47;2.80;;;1.60;;
37895;SDS011;23733;53.254;10.430;2022-09-09T20:23:13;2.87;;;1.70;;
37895;SDS011;23733;53.254;10.430;2022-09-09T20:25:40;3.33;;;1.87;;
37895;SDS011;23733;53.254;10.430;2022-09-09T20:28:06;3.97;;;1.67;;
37895;SDS011;23733;53.254;10.430;2022-09-09T20:30:32;3.33;;;1.60;;
37895;SDS011;23733;53.254;10.430;2022-09-09T20:33:02;6.53;;;1.60;;
37895;SDS011;23733;53.254;10.430;2022-09-09T20:35:29;2.80;;;1.80;;
37895;SDS011;23733;53.254;10.430;2022-09-09T20:37:55;2.97;;;1.73;;
37895;SDS011;23733;53.254;10.430;2022-09-09T20:40:21;3.60;;;2.00;;
37895;SDS011;23733;53.254;10.430;2022-09-09T20:42:47;3.87;;;1.90;;
37895;SDS011;23733;53.254;10.430;2022-09-09T20:45:15;3.93;;;2.00;;
37895;SDS011;23733;53.254;10.430;2022-09-09T20:47:41;2.53;;;1.80;;
37895;SDS011;23733;53.254;10.430;2022-09-09T20:50:07;6.57;;;1.97;;
37895;SDS011;23733;53.254;10.430;2022-09-09T20:52:34;5.03;;;1.80;;
37895;SDS011;23733;53.254;10.430;2022-09-09T20:55:00;4.93;;;2.00;;
37895;SDS011;23733;53.254;10.430;2022-09-09T20:57:26;4.33;;;1.93;;
37895;SDS011;23733;53.254;10.430;2022-09-09T20:59:52;3.17;;;1.80;;
37895;SDS011;23733;53.254;10.430;2022-09-09T21:02:18;3.60;;;1.70;;
37895;SDS011;23733;53.254;10.430;2022-09-09T21:04:44;3.70;;;2.50;;
37895;SDS011;23733;53.254;10.430;2022-09-09T21:07:11;7.17;;;2.90;;
37895;SDS011;23733;53.254;10.430;2022-09-09T21:09:38;8.50;;;2.60;;
37895;SDS011;23733;53.254;10.430;2022-09-09T21:12:05;4.67;;;1.80;;
37895;SDS011;23733;53.254;10.430;2022-09-09T21:14:31;5.93;;;2.00;;
37895;SDS011;23733;53.254;10.430;2022-09-09T21:16:57;6.30;;;2.20;;
37895;SDS011;23733;53.254;10.430;2022-09-09T21:19:23;6.03;;;2.47;;
37895;SDS011;23733;53.254;10.430;2022-09-09T21:21:49;4.43;;;2.50;;
37895;SDS011;23733;53.254;10.430;2022-09-09T21:24:15;6.50;;;2.10;;
37895;SDS011;23733;53.254;10.430;2022-09-09T21:26:41;5.20;;;2.70;;
37895;SDS011;23733;53.254;10.430;2022-09-09T21:29:07;3.53;;;1.80;;
37895;SDS011;23733;53.254;10.430;2022-09-09T21:31:34;4.27;;;2.37;;
37895;SDS011;23733;53.254;10.430;2022-09-09T21:34:01;3.73;;;2.20;;
37895;SDS011;23733;53.254;10.430;2022-09-09T21:36:28;4.37;;;2.20;;
37895;SDS011;23733;53.254;10.430;2022-09-09T21:38:55;2.73;;;1.80;;
37895;SDS011;23733;53.254;10.430;2022-09-09T21:41:23;3.53;;;2.00;;
37895;SDS011;23733;53.254;10.430;2022-09-09T21:43:51;4.13;;;2.00;;
37895;SDS011;23733;53.254;10.430;2022-09-09T21:46:18;6.00;;;2.20;;
37895;SDS011;23733;53.254;10.430;2022-09-09T21:48:44;4.50;;;1.60;;
37895;SDS011;23733;53.254;10.430;2022-09-09T21:51:12;4.30;;;1.80;;
37895;SDS011;23733;53.254;10.430;2022-09-09T21:53:40;5.73;;;2.10;;
37895;SDS011;23733;53.254;10.430;2022-09-09T21:56:08;7.30;;;2.17;;
37895;SDS011;23733;53.254;10.430;2022-09-09T21:58:35;5.50;;;2.20;;
37895;SDS011;23733;53.254;10.430;2022-09-09T22:01:06;5.57;;;2.07;;
37895;SDS011;23733;53.254;10.430;2022-09-09T22:03:35;5.53;;;1.90;;
37895;SDS011;23733;53.254;10.430;2022-09-09T22:06:04;6.23;;;2.67;;
37895;SDS011;23733;53.254;10.430;2022-09-09T22:08:31;5.10;;;1.87;;
37895;SDS011;23733;53.254;10.430;2022-09-09T22:10:58;3.90;;;1.80;;
37895;SDS011;23733;53.254;10.430;2022-09-09T22:13:32;9.47;;;1.90;;
37895;SDS011;23733;53.254;10.430;2022-09-09T22:16:00;6.90;;;2.03;;
37895;SDS011;23733;53.254;10.430;2022-09-09T22:18:28;4.10;;;1.77;;
37895;SDS011;23733;53.254;10.430;2022-09-09T22:20:56;3.47;;;1.80;;
37895;SDS011;23733;53.254;10.430;2022-09-09T22:23:24;5.23;;;2.00;;
37895;SDS011;23733;53.254;10.430;2022-09-09T22:25:51;4.27;;;2.27;;
37895;SDS011;23733;53.254;10.430;2022-09-09T22:28:20;4.23;;;2.53;;
37895;SDS011;23733;53.254;10.430;2022-09-09T22:30:46;3.87;;;2.23;;
37895;SDS011;23733;53.254;10.430;2022-09-09T22:33:12;3.17;;;1.90;;
37895;SDS011;23733;53.254;10.430;2022-09-09T22:35:39;7.57;;;2.40;;
37895;SDS011;23733;53.254;10.430;2022-09-09T22:38:10;3.57;;;1.93;;
37895;SDS011;23733;53.254;10.430;2022-09-09T22:40:37;3.60;;;2.00;;
37895;SDS011;23733;53.254;10.430;2022-09-09T22:43:04;2.73;;;1.90;;
37895;SDS011;23733;53.254;10.430;2022-09-09T22:45:34;5.57;;;2.17;;
37895;SDS011;23733;53.254;10.430;2022-09-09T22:48:01;5.50;;;2.20;;
37895;SDS011;23733;53.254;10.430;2022-09-09T22:50:27;6.20;;;2.30;;
37895;SDS011;23733;53.254;10.430;2022-09-09T22:52:57;6.57;;;2.73;;
37895;SDS011;23733;53.254;10.430;2022-09-09T22:55:23;6.47;;;2.33;;
37895;SDS011;23733;53.254;10.430;2022-09-09T22:57:50;4.50;;;2.20;;
37895;SDS011;23733;53.254;10.430;2022-09-09T23:00:16;3.83;;;2.00;;
37895;SDS011;23733;53.254;10.430;2022-09-09T23:02:42;5.20;;;2.30;;
37895;SDS011;23733;53.254;10.430;2022-09-09T23:05:08;4.10;;;2.10;;
37895;SDS011;23733;53.254;10.430;2022-09-09T23:07:35;3.20;;;2.13;;
37895;SDS011;23733;53.254;10.430;2022-09-09T23:10:02;3.20;;;1.97;;
37895;SDS011;23733;53.254;10.430;2022-09-09T23:12:29;3.67;;;2.20;;
37895;SDS011;23733;53.254;10.430;2022-09-09T23:14:56;2.37;;;1.80;;
37895;SDS011;23733;53.254;10.430;2022-09-09T23:17:22;4.03;;;1.90;;
37895;SDS011;23733;53.254;10.430;2022-09-09T23:19:49;3.70;;;2.13;;
37895;SDS011;23733;53.254;10.430;2022-09-09T23:22:21;4.47;;;2.07;;
37895;SDS011;23733;53.254;10.430;2022-09-09T23:24:48;5.80;;;2.03;;
37895;SDS011;23733;53.254;10.430;2022-09-09T23:27:14;3.50;;;2.20;;
37895;SDS011;23733;53.254;10.430;2022-09-09T23:29:40;4.07;;;2.03;;
37895;SDS011;23733;53.254;10.430;2022-09-09T23:32:06;5.00;;;2.20;;
37895;SDS011;23733;53.254;10.430;2022-09-09T23:34:32;2.33;;;2.00;;
37895;SDS011;23733;53.254;10.430;2022-09-09T23:36:59;3.43;;;2.00;;
37895;SDS011;23733;53.254;10.430;2022-09-09T23:39:25;3.63;;;2.00;;
37895;SDS011;23733;53.254;10.430;2022-09-09T23:41:51;5.23;;;2.60;;
37895;SDS011;23733;53.254;10.430;2022-09-09T23:44:17;4.90;;;2.07;;
37895;SDS011;23733;53.254;10.430;2022-09-09T23:46:43;4.37;;;1.87;;
37895;SDS011;23733;53.254;10.430;2022-09-09T23:49:09;3.40;;;2.33;;
37895;SDS011;23733;53.254;10.430;2022-09-09T23:51:35;6.37;;;2.33;;
37895;SDS011;23733;53.254;10.430;2022-09-09T23:54:03;3.03;;;2.13;;
37895;SDS011;23733;53.254;10.430;2022-09-09T23:56:31;4.80;;;2.20;;
37895;SDS011;23733;53.254;10.430;2022-09-09T23:58:59;4.53;;;2.20;;
